createdAt,value
2023-04-13T00:00:16.597Z,10.20
2023-04-13T00:02:46.606Z,10.20
2023-04-13T00:05:17.068Z,10.10
2023-04-13T00:07:45.646Z,10.00
2023-04-13T00:10:16.011Z,10.00
2023-04-13T00:12:47.563Z,9.90
2023-04-13T00:15:16.510Z,9.80
2023-04-13T00:17:45.505Z,9.80
2023-04-13T00:20:15.448Z,9.80
2023-04-13T00:22:46.822Z,9.70
2023-04-13T00:25:16.032Z,9.70
2023-04-13T00:27:45.160Z,9.70
2023-04-13T00:30:14.820Z,9.80
2023-04-13T00:32:44.527Z,9.80
2023-04-13T00:35:18.762Z,9.80
2023-04-13T00:37:48.713Z,9.90
2023-04-13T00:40:18.042Z,9.90
2023-04-13T00:42:47.252Z,9.90
2023-04-13T00:45:16.470Z,9.90
2023-04-13T00:47:47.490Z,9.80
2023-04-13T00:50:18.585Z,9.90
2023-04-13T00:52:49.002Z,10.00
2023-04-13T00:55:21.240Z,10.00
2023-04-13T00:57:52.937Z,10.00
2023-04-13T01:00:24.722Z,10.00
2023-04-13T01:02:53.604Z,9.90
2023-04-13T01:05:23.169Z,10.00
2023-04-13T01:08:02.886Z,10.00
2023-04-13T01:10:36.602Z,10.00
2023-04-13T01:13:12.447Z,9.80
2023-04-13T01:15:46.341Z,9.90
2023-04-13T01:18:16.408Z,9.90
2023-04-13T01:20:46.592Z,9.90
2023-04-13T01:23:31.245Z,9.90
2023-04-13T01:26:04.236Z,9.70
2023-04-13T01:28:35.146Z,9.80
2023-04-13T01:31:05.872Z,9.80
2023-04-13T01:33:35.491Z,9.90
2023-04-13T01:36:04.174Z,9.80
2023-04-13T01:38:32.865Z,9.80
2023-04-13T01:41:01.314Z,9.80
2023-04-13T01:43:30.066Z,9.70
2023-04-13T01:46:04.269Z,9.70
2023-04-13T01:48:35.741Z,9.70
2023-04-13T01:51:09.415Z,9.70
2023-04-13T01:53:39.656Z,9.70
2023-04-13T01:56:09.224Z,9.70
2023-04-13T01:58:38.100Z,9.70
2023-04-13T02:01:08.884Z,9.70
2023-04-13T02:03:38.650Z,9.80
2023-04-13T02:06:07.867Z,9.60
2023-04-13T02:08:36.870Z,9.50
2023-04-13T02:11:06.006Z,9.50
2023-04-13T02:13:34.603Z,9.60
2023-04-13T02:16:03.789Z,9.70
2023-04-13T02:18:33.964Z,9.70
2023-04-13T02:21:08.153Z,9.70
2023-04-13T02:23:37.658Z,9.70
2023-04-13T02:26:09.067Z,9.80
2023-04-13T02:28:37.734Z,9.80
2023-04-13T02:31:06.754Z,9.80
2023-04-13T02:33:37.818Z,9.80
2023-04-13T02:36:07.513Z,9.80
2023-04-13T02:38:37.289Z,9.90
2023-04-13T02:41:06.664Z,9.90
2023-04-13T02:43:35.695Z,9.90
2023-04-13T02:46:04.369Z,10.00
2023-04-13T02:48:33.091Z,10.00
2023-04-13T02:51:03.184Z,10.00
2023-04-13T02:53:31.647Z,9.90
2023-04-13T02:56:00.878Z,9.90
2023-04-13T02:58:32.514Z,9.90
2023-04-13T03:01:01.111Z,9.90
2023-04-13T03:03:30.433Z,9.90
2023-04-13T03:06:01.459Z,9.90
2023-04-13T03:08:31.668Z,9.80
2023-04-13T03:11:00.845Z,9.90
2023-04-13T03:13:29.397Z,9.90
2023-04-13T03:15:57.990Z,9.90
2023-04-13T03:18:27.240Z,10.00
2023-04-13T03:20:55.801Z,10.00
2023-04-13T03:23:24.440Z,9.90
2023-04-13T03:25:54.415Z,9.90
2023-04-13T03:28:23.296Z,9.90
2023-04-13T03:30:51.814Z,9.90
2023-04-13T03:33:20.387Z,9.90
2023-04-13T03:35:48.845Z,9.90
2023-04-13T03:38:17.594Z,10.00
2023-04-13T03:40:46.086Z,10.00
2023-04-13T03:43:16.174Z,10.00
2023-04-13T03:45:44.652Z,9.90
2023-04-13T03:48:13.079Z,9.90
2023-04-13T03:50:41.516Z,9.80
2023-04-13T03:53:10.010Z,9.80
2023-04-13T03:55:38.634Z,9.80
2023-04-13T03:58:07.364Z,9.70
2023-04-13T04:00:37.198Z,9.80
2023-04-13T04:03:05.895Z,9.70
2023-04-13T04:05:34.364Z,9.60
2023-04-13T04:08:03.548Z,9.60
2023-04-13T04:10:32.031Z,9.50
2023-04-13T04:13:00.517Z,9.50
2023-04-13T04:15:29.020Z,9.50
2023-04-13T04:17:59.374Z,9.30
2023-04-13T04:20:28.491Z,9.20
2023-04-13T04:23:01.043Z,9.10
2023-04-13T04:25:29.533Z,9.20
2023-04-13T04:27:58.374Z,9.30
2023-04-13T04:30:29.668Z,9.30
2023-04-13T04:32:59.854Z,9.20
2023-04-13T04:35:33.518Z,9.30
2023-04-13T04:38:04.435Z,9.30
2023-04-13T04:40:35.613Z,9.30
2023-04-13T04:43:05.230Z,9.30
2023-04-13T04:45:36.276Z,9.20
2023-04-13T04:48:07.835Z,9.20
2023-04-13T04:50:37.575Z,9.20
2023-04-13T04:53:06.283Z,9.20
2023-04-13T04:55:35.290Z,9.30
2023-04-13T04:58:03.850Z,9.20
2023-04-13T05:00:32.325Z,9.20
2023-04-13T05:03:02.188Z,9.20
2023-04-13T05:05:32.308Z,9.20
2023-04-13T05:08:01.258Z,9.20
2023-04-13T05:10:30.205Z,9.20
2023-04-13T05:12:58.684Z,9.20
2023-04-13T05:15:28.376Z,9.30
2023-04-13T05:17:57.395Z,9.30
2023-04-13T05:20:28.013Z,9.30
2023-04-13T05:22:58.890Z,9.30
2023-04-13T05:25:27.615Z,9.30
2023-04-13T05:27:56.322Z,9.30
2023-04-13T05:30:24.903Z,9.30
2023-04-13T05:32:53.360Z,9.30
2023-04-13T05:35:23.516Z,9.30
2023-04-13T05:37:52.354Z,9.40
2023-04-13T05:40:22.461Z,9.40
2023-04-13T05:42:51.536Z,9.40
2023-04-13T05:45:20.571Z,9.40
2023-04-13T05:47:49.369Z,9.40
2023-04-13T05:50:18.138Z,9.50
2023-04-13T05:52:47.309Z,9.50
2023-04-13T05:55:16.459Z,9.50
2023-04-13T05:57:46.484Z,9.50
2023-04-13T06:00:18.268Z,9.50
2023-04-13T06:02:49.132Z,9.50
2023-04-13T06:05:18.457Z,9.60
2023-04-13T06:07:47.834Z,9.60
2023-04-13T06:10:16.848Z,9.60
2023-04-13T06:12:48.937Z,9.50
2023-04-13T06:15:18.521Z,9.50
2023-04-13T06:17:47.345Z,9.60
2023-04-13T06:20:16.363Z,9.60
2023-04-13T06:22:44.835Z,9.50
2023-04-13T06:25:14.021Z,9.50
2023-04-13T06:27:43.570Z,9.60
2023-04-13T06:30:14.092Z,9.70
2023-04-13T06:32:42.622Z,9.60
2023-04-13T06:35:12.702Z,9.70
2023-04-13T06:37:41.216Z,9.70
2023-04-13T06:40:12.415Z,9.80
2023-04-13T06:42:41.538Z,9.70
2023-04-13T06:45:11.261Z,9.70
2023-04-13T06:47:41.848Z,9.80
2023-04-13T06:50:14.031Z,10.00
2023-04-13T06:52:44.157Z,10.00
2023-04-13T06:55:12.791Z,9.90
2023-04-13T06:57:41.575Z,9.90
2023-04-13T07:00:22.277Z,9.90
2023-04-13T07:03:00.086Z,10.10
2023-04-13T07:05:29.092Z,10.20
2023-04-13T07:07:58.363Z,10.30
2023-04-13T07:10:27.307Z,10.40
2023-04-13T07:12:55.960Z,10.40
2023-04-13T07:15:24.472Z,10.40
2023-04-13T07:17:52.988Z,10.30
2023-04-13T07:20:23.278Z,10.30
2023-04-13T07:22:51.730Z,10.40
2023-04-13T07:25:21.631Z,10.40
2023-04-13T07:27:50.203Z,10.30
2023-04-13T07:30:18.991Z,10.40
2023-04-13T07:32:47.918Z,10.50
2023-04-13T07:35:16.370Z,10.60
2023-04-13T07:37:46.845Z,10.60
2023-04-13T07:40:15.538Z,10.50
2023-04-13T07:42:45.304Z,10.50
2023-04-13T07:45:15.540Z,10.50
2023-04-13T07:47:44.026Z,10.60
2023-04-13T07:50:13.404Z,10.60
2023-04-13T07:52:41.968Z,10.60
2023-04-13T07:55:12.133Z,10.60
2023-04-13T07:57:40.650Z,10.50
2023-04-13T08:00:12.311Z,10.50
2023-04-13T08:02:41.464Z,10.40
2023-04-13T08:05:11.593Z,10.50
2023-04-13T08:07:40.144Z,10.40
2023-04-13T08:10:09.852Z,10.40
2023-04-13T08:12:39.710Z,10.40
2023-04-13T08:15:09.815Z,10.40
2023-04-13T08:17:38.749Z,10.40
2023-04-13T08:20:09.181Z,10.40
2023-04-13T08:22:37.889Z,10.40
2023-04-13T08:25:07.131Z,10.40
2023-04-13T08:27:35.871Z,10.30
2023-04-13T08:30:07.865Z,10.40
2023-04-13T08:32:36.342Z,10.40
2023-04-13T08:35:07.407Z,10.40
2023-04-13T08:37:36.069Z,10.40
2023-04-13T08:40:07.662Z,10.50
2023-04-13T08:42:36.655Z,10.40
2023-04-13T08:45:07.702Z,10.40
2023-04-13T08:47:36.367Z,10.40
2023-04-13T08:50:05.132Z,10.50
2023-04-13T08:52:33.648Z,10.50
2023-04-13T08:55:04.044Z,10.40
2023-04-13T08:57:32.877Z,10.40
2023-04-13T09:00:01.605Z,10.40
2023-04-13T09:02:35.386Z,10.50
2023-04-13T09:05:06.738Z,10.50
2023-04-13T09:07:36.889Z,10.40
2023-04-13T09:10:07.968Z,10.40
2023-04-13T09:12:36.814Z,10.40
2023-04-13T09:15:07.431Z,10.50
2023-04-13T09:17:37.455Z,10.50
2023-04-13T09:20:14.781Z,10.50
2023-04-13T09:22:43.550Z,10.60
2023-04-13T09:25:22.417Z,10.50
2023-04-13T09:27:52.115Z,10.60
2023-04-13T09:30:22.185Z,10.40
2023-04-13T09:33:04.136Z,10.50
2023-04-13T09:35:32.911Z,10.60
2023-04-13T09:38:01.795Z,10.70
2023-04-13T09:40:30.819Z,10.80
2023-04-13T09:43:00.968Z,10.80
2023-04-13T09:45:35.934Z,10.80
2023-04-13T09:48:07.085Z,10.80
2023-04-13T09:50:36.899Z,10.80
2023-04-13T09:53:06.820Z,10.80
2023-04-13T09:55:37.064Z,10.80
2023-04-13T09:58:12.748Z,10.90
2023-04-13T10:00:43.721Z,10.90
2023-04-13T10:03:14.654Z,10.90
2023-04-13T10:05:58.585Z,10.80
2023-04-13T10:11:01.675Z,10.70
2023-04-13T10:13:35.358Z,10.70
2023-04-13T10:16:30.359Z,10.80
2023-04-13T10:19:03.048Z,10.90
2023-04-13T10:21:35.377Z,10.90
2023-04-13T10:24:11.483Z,10.50
2023-04-13T10:26:41.008Z,10.60
2023-04-13T10:29:11.541Z,10.70
2023-04-13T10:31:41.362Z,10.70
2023-04-13T10:34:11.737Z,10.90
2023-04-13T10:36:43.062Z,10.90
2023-04-13T10:39:12.003Z,10.90
2023-04-13T10:41:40.635Z,10.90
2023-04-13T10:44:10.578Z,10.90
2023-04-13T10:46:39.197Z,10.90
2023-04-13T10:49:08.237Z,10.80
2023-04-13T10:51:42.110Z,10.70
2023-04-13T10:54:12.460Z,10.60
2023-04-13T10:56:41.318Z,10.60
2023-04-13T10:59:09.810Z,10.60
2023-04-13T11:01:41.294Z,10.70
2023-04-13T11:04:14.918Z,10.60
2023-04-13T11:06:47.022Z,10.60
2023-04-13T11:09:17.232Z,10.70
2023-04-13T11:11:52.636Z,10.70
2023-04-13T11:14:24.400Z,10.70
2023-04-13T11:16:58.373Z,10.60
2023-04-13T11:19:27.341Z,10.60
2023-04-13T11:21:58.109Z,10.70
2023-04-13T11:24:33.866Z,10.70
2023-04-13T11:27:02.311Z,10.70
2023-04-13T11:29:30.738Z,10.70
2023-04-13T11:31:59.279Z,10.70
2023-04-13T11:34:29.074Z,10.70
2023-04-13T11:37:06.290Z,10.70
2023-04-13T11:39:36.484Z,10.80
2023-04-13T11:42:08.338Z,10.80
2023-04-13T11:44:37.730Z,10.80
2023-04-13T11:47:08.803Z,10.80
2023-04-13T11:49:37.632Z,10.70
2023-04-13T11:52:08.069Z,10.70
2023-04-13T11:54:37.090Z,10.70
2023-04-13T11:57:06.260Z,10.70
2023-04-13T11:59:36.284Z,10.70
2023-04-13T12:02:12.168Z,10.70
2023-04-13T12:04:50.238Z,10.70
2023-04-13T12:07:20.912Z,10.80
2023-04-13T12:15:09.975Z,10.70
2023-04-13T12:17:49.933Z,10.70
2023-04-13T12:20:21.166Z,10.60
2023-04-13T12:22:54.952Z,10.60
2023-04-13T12:28:05.005Z,10.70
2023-04-13T12:30:34.271Z,10.50
2023-04-13T12:33:02.816Z,10.40
2023-04-13T12:35:31.352Z,10.40
2023-04-13T12:38:01.645Z,10.40
2023-04-13T12:40:30.137Z,10.40
2023-04-13T12:42:58.664Z,10.40
2023-04-13T12:45:28.510Z,10.40
2023-04-13T12:47:57.048Z,10.40
2023-04-13T12:50:26.424Z,10.50
2023-04-13T12:52:54.958Z,10.50
2023-04-13T12:55:25.028Z,10.40
2023-04-13T12:57:53.489Z,10.30
2023-04-13T13:00:23.059Z,10.40
2023-04-13T13:02:59.414Z,10.30
2023-04-13T13:05:35.033Z,10.30
2023-04-13T13:08:03.623Z,10.40
2023-04-13T13:10:33.705Z,10.40
2023-04-13T13:13:03.946Z,10.40
2023-04-13T13:15:33.347Z,10.40
2023-04-13T13:18:04.152Z,10.30
2023-04-13T13:20:32.761Z,10.30
2023-04-13T13:23:01.171Z,10.20
2023-04-13T13:25:29.842Z,10.20
2023-04-13T13:28:13.157Z,10.20
2023-04-13T13:30:44.043Z,10.10
2023-04-13T13:33:12.775Z,10.20
2023-04-13T13:35:41.750Z,10.20
2023-04-13T13:38:10.712Z,10.20
2023-04-13T13:40:39.181Z,10.20
2023-04-13T13:43:14.145Z,10.20
2023-04-13T13:45:42.809Z,10.10
2023-04-13T13:48:11.722Z,10.10
2023-04-13T13:50:40.822Z,10.10
2023-04-13T13:53:13.194Z,10.00
2023-04-13T13:55:41.968Z,10.00
2023-04-13T13:58:12.603Z,10.00
2023-04-13T14:00:43.465Z,10.00
2023-04-13T14:03:12.817Z,9.90
2023-04-13T14:05:43.134Z,10.00
2023-04-13T14:08:11.999Z,9.90
2023-04-13T14:10:42.869Z,9.90
2023-04-13T14:13:12.722Z,10.00
2023-04-13T14:15:41.280Z,9.90
2023-04-13T14:18:11.735Z,10.00
2023-04-13T14:20:40.871Z,9.90
2023-04-13T14:23:10.088Z,9.80
2023-04-13T14:25:41.093Z,9.70
2023-04-13T14:28:11.649Z,9.70
2023-04-13T14:30:42.274Z,9.70
2023-04-13T14:33:13.689Z,9.60
2023-04-13T14:35:42.273Z,9.60
2023-04-13T14:38:11.412Z,9.70
2023-04-13T14:40:40.506Z,9.70
2023-04-13T14:43:09.981Z,9.70
2023-04-13T14:45:39.373Z,9.80
2023-04-13T14:48:09.713Z,9.80
2023-04-13T14:50:42.780Z,9.80
2023-04-13T14:53:15.276Z,9.80
2023-04-13T14:55:46.106Z,9.80
2023-04-13T14:58:15.521Z,9.80
2023-04-13T15:00:44.469Z,9.80
2023-04-13T15:03:15.072Z,9.80
2023-04-13T15:05:46.320Z,9.80
2023-04-13T15:08:16.649Z,9.80
2023-04-13T15:10:45.819Z,9.80
2023-04-13T15:13:14.490Z,9.80
2023-04-13T15:15:42.945Z,9.70
2023-04-13T15:18:11.622Z,9.70
2023-04-13T15:20:41.557Z,9.70
2023-04-13T15:23:10.135Z,9.70
2023-04-13T15:25:39.171Z,9.70
2023-04-13T15:28:07.662Z,9.70
2023-04-13T15:30:36.242Z,9.60
2023-04-13T15:33:05.500Z,9.60
2023-04-13T15:35:35.909Z,9.50
2023-04-13T15:38:06.383Z,9.60
2023-04-13T15:40:36.241Z,9.60
2023-04-13T15:43:04.909Z,9.50
2023-04-13T15:45:33.812Z,9.50
2023-04-13T15:48:02.891Z,9.50
2023-04-13T15:50:31.396Z,9.50
2023-04-13T15:52:59.816Z,9.50
2023-04-13T15:55:29.849Z,9.50
2023-04-13T15:57:58.291Z,9.50
2023-04-13T16:00:27.437Z,9.50
2023-04-13T16:02:56.806Z,9.60
2023-04-13T16:05:25.414Z,9.50
2023-04-13T16:07:54.867Z,9.50
2023-04-13T16:10:23.456Z,9.40
2023-04-13T16:12:54.835Z,9.40
2023-04-13T16:15:24.197Z,9.50
2023-04-13T16:17:54.005Z,9.30
2023-04-13T16:20:22.691Z,9.20
2023-04-13T16:22:53.522Z,9.20
2023-04-13T16:25:22.245Z,9.20
2023-04-13T16:27:54.819Z,9.20
2023-04-13T16:30:24.176Z,9.20
2023-04-13T16:32:52.653Z,9.20
2023-04-13T16:35:21.438Z,9.10
2023-04-13T16:37:49.904Z,9.00
2023-04-13T16:40:18.877Z,9.10
2023-04-13T16:42:47.301Z,9.10
2023-04-13T16:45:17.187Z,9.20
2023-04-13T16:47:46.235Z,9.20
2023-04-13T16:50:14.729Z,9.10
2023-04-13T16:52:43.279Z,9.10
2023-04-13T16:55:15.021Z,9.10
2023-04-13T16:57:44.252Z,9.10
2023-04-13T17:00:14.967Z,9.00
2023-04-13T17:02:44.982Z,9.10
2023-04-13T17:05:13.796Z,9.10
2023-04-13T17:07:43.442Z,9.00
2023-04-13T17:10:13.511Z,9.00
2023-04-13T17:12:42.263Z,9.00
2023-04-13T17:15:11.428Z,9.00
2023-04-13T17:17:39.963Z,9.00
2023-04-13T17:20:11.107Z,9.00
2023-04-13T17:22:39.575Z,9.00
2023-04-13T17:25:09.400Z,9.10
2023-04-13T17:27:37.934Z,9.10
2023-04-13T17:30:07.712Z,9.00
2023-04-13T17:32:36.644Z,9.00
2023-04-13T17:35:05.688Z,9.00
2023-04-13T17:37:35.798Z,9.00
2023-04-13T17:40:04.676Z,9.00
2023-04-13T17:42:33.223Z,8.90
2023-04-13T17:45:02.309Z,8.90
2023-04-13T17:47:30.836Z,8.80
2023-04-13T17:49:59.990Z,8.80
2023-04-13T17:52:28.505Z,8.80
2023-04-13T17:54:58.269Z,8.80
2023-04-13T17:57:26.735Z,8.80
2023-04-13T17:59:55.823Z,8.80
2023-04-13T18:02:24.575Z,8.80
2023-04-13T18:04:53.182Z,8.80
2023-04-13T18:07:22.775Z,8.80
2023-04-13T18:09:51.620Z,8.80
2023-04-13T18:12:21.645Z,8.80
2023-04-13T18:14:50.253Z,8.80
2023-04-13T18:17:18.654Z,8.70
2023-04-13T18:19:47.692Z,8.60
2023-04-13T18:22:16.458Z,8.60
2023-04-13T18:24:45.122Z,8.60
2023-04-13T18:27:13.524Z,8.60
2023-04-13T18:29:43.374Z,8.60
2023-04-13T18:32:11.900Z,8.60
2023-04-13T18:34:42.289Z,8.50
2023-04-13T18:37:10.932Z,8.50
2023-04-13T18:39:39.485Z,8.60
2023-04-13T18:42:08.692Z,8.60
2023-04-13T18:44:37.302Z,8.60
2023-04-13T18:47:07.330Z,8.60
2023-04-13T18:49:36.038Z,8.50
2023-04-13T18:52:04.647Z,8.50
2023-04-13T18:54:34.496Z,8.50
2023-04-13T18:57:03.034Z,8.40
2023-04-13T18:59:31.535Z,8.50
2023-04-13T19:02:00.163Z,8.50
2023-04-13T19:04:30.193Z,8.50
2023-04-13T19:06:59.125Z,8.60
2023-04-13T19:09:27.616Z,8.60
2023-04-13T19:12:01.237Z,8.60
2023-04-13T19:14:29.781Z,8.70
2023-04-13T19:16:59.167Z,8.60
2023-04-13T19:19:29.045Z,8.70
2023-04-13T19:21:57.545Z,8.60
2023-04-13T19:24:25.976Z,8.60
2023-04-13T19:26:55.833Z,8.50
2023-04-13T19:29:26.890Z,8.50
2023-04-13T19:31:55.649Z,8.50
2023-04-13T19:34:24.173Z,8.50
2023-04-13T19:36:54.131Z,8.60
2023-04-13T19:39:22.661Z,8.50
2023-04-13T19:41:51.052Z,8.40
2023-04-13T19:44:19.483Z,8.40
2023-04-13T19:46:48.118Z,8.40
2023-04-13T19:49:16.822Z,8.40
2023-04-13T19:51:45.370Z,8.30
2023-04-13T19:54:15.295Z,8.30
2023-04-13T19:56:43.956Z,8.30
2023-04-13T19:59:12.488Z,8.30
2023-04-13T20:01:41.212Z,8.20
2023-04-13T20:04:09.947Z,8.20
2023-04-13T20:06:38.610Z,8.30
2023-04-13T20:09:11.554Z,8.40
2023-04-13T20:11:42.150Z,8.40
2023-04-13T20:14:11.443Z,8.30
2023-04-13T20:16:40.098Z,8.30
2023-04-13T20:19:09.483Z,8.20
2023-04-13T20:21:38.097Z,8.20
2023-04-13T20:24:06.971Z,8.20
2023-04-13T20:26:35.438Z,8.20
2023-04-13T20:29:06.240Z,8.20
2023-04-13T20:31:35.894Z,8.20
2023-04-13T20:34:09.836Z,8.20
2023-04-13T20:36:41.461Z,8.20
2023-04-13T20:39:10.090Z,8.20
2023-04-13T20:41:38.952Z,8.20
2023-04-13T20:44:10.661Z,8.20
2023-04-13T20:46:41.976Z,8.20
2023-04-13T20:49:11.992Z,8.20
2023-04-13T20:51:40.918Z,8.10
2023-04-13T20:54:10.049Z,8.10
2023-04-13T20:56:38.526Z,8.00
2023-04-13T20:59:09.569Z,8.00
2023-04-13T21:01:38.709Z,8.00
2023-04-13T21:04:07.200Z,8.10
2023-04-13T21:06:36.126Z,7.80
2023-04-13T21:09:05.728Z,7.80
2023-04-13T21:11:34.237Z,7.70
2023-04-13T21:14:03.874Z,7.80
2023-04-13T21:16:33.897Z,7.80
2023-04-13T21:19:02.394Z,7.80
2023-04-13T21:21:32.744Z,7.80
2023-04-13T21:24:01.401Z,7.70
2023-04-13T21:26:30.266Z,7.70
2023-04-13T21:28:58.734Z,7.70
2023-04-13T21:31:27.234Z,7.70
2023-04-13T21:33:59.070Z,7.70
2023-04-13T21:38:59.657Z,7.60
2023-04-13T21:41:28.223Z,7.60
2023-04-13T21:43:56.659Z,7.60
2023-04-13T21:46:25.572Z,7.50
2023-04-13T21:48:54.069Z,7.50
2023-04-13T21:51:23.862Z,7.40
2023-04-13T21:53:53.345Z,7.40
2023-04-13T21:56:21.791Z,7.40
2023-04-13T21:58:50.660Z,7.40
2023-04-13T22:01:19.752Z,7.40
2023-04-13T22:03:49.099Z,7.40
2023-04-13T22:06:17.583Z,7.30
2023-04-13T22:08:47.403Z,7.30
2023-04-13T22:11:15.995Z,7.30
2023-04-13T22:13:44.565Z,7.30
2023-04-13T22:16:13.046Z,7.30
2023-04-13T22:18:41.743Z,7.30
2023-04-13T22:21:10.549Z,7.30
2023-04-13T22:23:38.999Z,7.30
2023-04-13T22:26:08.806Z,7.30
2023-04-13T22:28:37.338Z,7.30
2023-04-13T22:31:09.408Z,7.30
2023-04-13T22:33:38.255Z,7.20
2023-04-13T22:36:07.954Z,7.20
2023-04-13T22:38:36.559Z,7.10
2023-04-13T22:41:08.696Z,7.00
2023-04-13T22:43:37.426Z,7.10
2023-04-13T22:46:05.926Z,7.20
2023-04-13T22:48:34.400Z,7.20
2023-04-13T22:51:03.582Z,7.20
2023-04-13T22:53:32.235Z,7.20
2023-04-13T22:56:01.259Z,7.10
2023-04-13T22:58:31.041Z,7.10
2023-04-13T23:01:00.447Z,7.10
2023-04-13T23:03:28.972Z,7.10
2023-04-13T23:05:57.492Z,7.10
2023-04-13T23:08:26.151Z,7.10
2023-04-13T23:10:54.560Z,7.10
2023-04-13T23:13:22.963Z,7.10
2023-04-13T23:16:00.604Z,7.10
2023-04-13T23:18:29.186Z,7.10
2023-04-13T23:20:57.613Z,7.00
2023-04-13T23:23:26.228Z,7.00
2023-04-13T23:25:54.721Z,7.00
2023-04-13T23:28:23.149Z,7.00
2023-04-13T23:30:53.056Z,7.00
2023-04-13T23:33:21.894Z,7.00
2023-04-13T23:35:53.161Z,7.00
2023-04-13T23:38:21.706Z,7.00
2023-04-13T23:40:50.144Z,7.10
2023-04-13T23:43:18.594Z,7.10
2023-04-13T23:45:47.370Z,7.10
2023-04-13T23:48:17.214Z,7.10
2023-04-13T23:50:45.904Z,7.00
2023-04-13T23:53:14.503Z,6.80
2023-04-13T23:55:43.066Z,6.90
2023-04-13T23:58:11.493Z,6.80
